createdAt,value
2022-10-06T00:02:06.802Z,996.7
2022-10-06T00:05:47.334Z,996.7
2022-10-06T00:12:45.944Z,996.7
2022-10-06T00:16:25.470Z,996.8
2022-10-06T00:23:24.045Z,996.8
2022-10-06T00:27:03.666Z,996.8
2022-10-06T00:34:02.253Z,996.9
2022-10-06T00:37:41.682Z,996.9
2022-10-06T00:44:40.281Z,996.9
2022-10-06T00:48:21.981Z,997
2022-10-06T00:53:41.465Z,997
2022-10-06T00:59:00.550Z,997
2022-10-06T01:04:19.903Z,997
2022-10-06T01:09:37.883Z,997
2022-10-06T01:16:36.469Z,997.1
2022-10-06T01:20:18.379Z,997.1
2022-10-06T01:28:51.425Z,997.2
2022-10-06T01:30:55.688Z,997.3
2022-10-06T01:36:40.534Z,997.4
2022-10-06T01:41:59.973Z,997.4
2022-10-06T01:47:20.174Z,997.3
2022-10-06T01:53:54.358Z,997.3
2022-10-06T01:57:59.463Z,997.2
2022-10-06T02:03:17.296Z,997.2
2022-10-06T02:10:15.884Z,997.2
2022-10-06T02:13:55.072Z,997.2
2022-10-06T02:19:14.288Z,997.2
2022-10-06T02:24:33.731Z,997.3
2022-10-06T02:29:52.446Z,997.6
2022-10-06T02:35:10.577Z,997.8
2022-10-06T02:40:30.740Z,997.8
2022-10-06T02:45:49.748Z,997.9
2022-10-06T02:51:08.254Z,997.9
2022-10-06T02:56:27.016Z,998
2022-10-06T03:01:46.462Z,998
2022-10-06T03:07:06.500Z,998.1
2022-10-06T03:13:40.638Z,998.1
2022-10-06T03:17:56.063Z,998.2
2022-10-06T03:23:04.923Z,998.3
2022-10-06T03:28:23.658Z,998.4
2022-10-06T03:33:42.362Z,998.5
2022-10-06T03:39:02.569Z,998.5
2022-10-06T03:44:20.751Z,998.6
2022-10-06T03:49:40.626Z,998.7
2022-10-06T03:55:00.425Z,998.7
2022-10-06T04:00:19.368Z,998.8
2022-10-06T04:05:38.959Z,998.8
2022-10-06T04:10:58.081Z,998.8
2022-10-06T04:17:32.275Z,998.8
2022-10-06T04:21:36.768Z,999
2022-10-06T04:26:56.183Z,999.1
2022-10-06T04:33:30.312Z,999.2
2022-10-06T04:37:34.237Z,999.3
2022-10-06T04:44:32.824Z,999.4
2022-10-06T04:48:12.882Z,999.4
2022-10-06T04:55:11.408Z,999.4
2022-10-06T05:04:09.793Z,999.6
2022-10-06T05:09:29.165Z,999.8
2022-10-06T05:14:47.947Z,999.9
2022-10-06T05:21:22.099Z,999.9
2022-10-06T05:25:26.925Z,1000
2022-10-06T05:30:45.676Z,1000.1
2022-10-06T05:36:03.298Z,1000.3
2022-10-06T05:41:22.623Z,1000.4
2022-10-06T05:46:41.017Z,1000.6
2022-10-06T05:52:00.519Z,1000.7
2022-10-06T05:57:20.307Z,1000.7
2022-10-06T06:02:39.054Z,1000.8
2022-10-06T06:07:59.195Z,1000.9
2022-10-06T06:13:17.960Z,1000.9
2022-10-06T06:18:37.406Z,1001
2022-10-06T06:23:57.488Z,1001.1
2022-10-06T06:29:16.227Z,1001.1
2022-10-06T06:34:34.477Z,1001.1
2022-10-06T06:39:54.614Z,1001.3
2022-10-06T06:45:12.708Z,1001.4
2022-10-06T06:50:33.088Z,1001.5
2022-10-06T06:57:07.251Z,1001.6
2022-10-06T07:06:32.380Z,1001.7
2022-10-06T07:11:50.749Z,1001.8
2022-10-06T07:17:10.179Z,1001.9
2022-10-06T07:23:44.354Z,1002
2022-10-06T07:27:59.741Z,1002.1
2022-10-06T07:33:07.260Z,1002.2
2022-10-06T07:39:41.418Z,1002.3
2022-10-06T07:43:46.774Z,1002.3
2022-10-06T07:49:05.444Z,1002.3
2022-10-06T07:54:27.320Z,1002.4
2022-10-06T07:59:44.344Z,1002.4
2022-10-06T08:05:03.915Z,1002.5
2022-10-06T08:10:22.670Z,1002.5
2022-10-06T08:15:41.689Z,1002.5
2022-10-06T08:24:14.743Z,1002.5
2022-10-06T08:26:20.142Z,1002.6
2022-10-06T08:37:15.768Z,1002.8
2022-10-06T08:42:17.746Z,1002.7
2022-10-06T08:47:36.773Z,1002.9
2022-10-06T08:52:55.004Z,1002.9
2022-10-06T08:58:23.510Z,1002.9
2022-10-06T09:03:34.204Z,1002.9
2022-10-06T09:08:52.903Z,1002.9
2022-10-06T09:14:12.400Z,1002.9
2022-10-06T09:56:46.393Z,1003.2
2022-10-06T10:02:05.711Z,1003.3
2022-10-06T10:09:04.269Z,1003.2
2022-10-06T10:13:20.786Z,1003.3
2022-10-06T10:18:03.953Z,1003.2
2022-10-06T10:23:25.021Z,1003.1
2022-10-06T10:28:42.449Z,1003.2
2022-10-06T10:34:12.348Z,1003.3
2022-10-06T10:39:20.172Z,1003.3
2022-10-06T10:44:38.934Z,1003.3
2022-10-06T10:49:57.831Z,1003.2
2022-10-06T10:58:30.830Z,1003.2
2022-10-06T11:02:47.394Z,1003.2
2022-10-06T11:07:03.939Z,1003.2
2022-10-06T11:11:15.241Z,1003.2
2022-10-06T11:16:34.390Z,1003.2
2022-10-06T11:21:51.303Z,1003.2
2022-10-06T11:27:10.839Z,1003.2
2022-10-06T11:32:30.404Z,1003.1
2022-10-06T11:37:50.545Z,1003.1
2022-10-06T11:43:09.017Z,1003.2
2022-10-06T11:48:28.876Z,1003.1
2022-10-06T11:55:03.034Z,1003.1
2022-10-06T11:59:08.503Z,1003
2022-10-06T12:04:27.660Z,1003
2022-10-06T12:09:51.109Z,1003
2022-10-06T12:16:54.795Z,1002.9
2022-10-06T12:20:24.050Z,1002.9
2022-10-06T12:27:24.948Z,1002.9
2022-10-06T12:36:21.371Z,1002.8
2022-10-06T12:41:40.296Z,1002.7
2022-10-06T12:46:59.268Z,1002.7
2022-10-06T12:52:18.285Z,1002.8
2022-10-06T12:57:37.640Z,1002.7
2022-10-06T13:02:56.872Z,1002.7
2022-10-06T13:08:15.754Z,1002.6
2022-10-06T13:13:34.866Z,1002.6
2022-10-06T13:18:53.624Z,1002.6
2022-10-06T13:24:12.857Z,1002.5
2022-10-06T13:29:31.482Z,1002.5
2022-10-06T13:34:51.047Z,1002.5
2022-10-06T13:40:16.656Z,1002.4
2022-10-06T13:45:30.654Z,1002.5
2022-10-06T13:50:49.352Z,1002.5
2022-10-06T13:56:09.027Z,1002.4
2022-10-06T14:01:27.867Z,1002.5
2022-10-06T14:06:47.521Z,1002.5
2022-10-06T14:12:06.415Z,1002.5
2022-10-06T14:17:25.592Z,1002.5
2022-10-06T14:22:45.690Z,1002.5
2022-10-06T14:28:03.854Z,1002.4
2022-10-06T14:33:23.910Z,1002.4
2022-10-06T14:38:42.352Z,1002.4
2022-10-06T14:44:01.454Z,1002.4
2022-10-06T14:49:21.232Z,1002.4
2022-10-06T14:54:39.460Z,1002.3
2022-10-06T14:59:58.454Z,1002.3
2022-10-06T15:05:17.877Z,1002.2
2022-10-06T15:10:37.141Z,1002.2
2022-10-06T15:17:11.329Z,1002.2
2022-10-06T15:21:16.516Z,1002.2
2022-10-06T15:26:35.585Z,1002.2
2022-10-06T15:31:53.195Z,1002.2
2022-10-06T15:38:51.754Z,1002.2
2022-10-06T15:47:51.491Z,1002.2
2022-10-06T15:53:10.861Z,1002.2
2022-10-06T15:58:30.495Z,1002.2
2022-10-06T16:03:48.265Z,1002.2
2022-10-06T16:09:07.085Z,1002.2
2022-10-06T16:14:26.584Z,1002.3
2022-10-06T16:19:45.676Z,1002.3
2022-10-06T16:26:19.831Z,1002.3
2022-10-06T16:35:45.161Z,1002.4
2022-10-06T16:41:03.370Z,1002.5
2022-10-06T16:48:01.964Z,1002.5
2022-10-06T16:52:18.506Z,1002.5
2022-10-06T16:57:00.610Z,1002.6
2022-10-06T17:03:59.271Z,1002.6
2022-10-06T17:07:40.307Z,1002.6
2022-10-06T17:16:13.464Z,1002.7
2022-10-06T17:28:56.979Z,1002.8
2022-10-06T17:34:19.764Z,1002.8
2022-10-06T17:41:14.001Z,1002.9
2022-10-06T17:50:12.558Z,1002.9
2022-10-06T17:55:32.252Z,1003
2022-10-06T18:00:51.835Z,1002.9
2022-10-06T18:06:10.674Z,1003
2022-10-06T18:12:44.868Z,1003
2022-10-06T18:16:52.206Z,1003
2022-10-06T18:23:47.737Z,1003.1
2022-10-06T18:38:07.122Z,1003.1
2022-10-06T18:43:26.167Z,1003.1
2022-10-06T18:48:45.587Z,1003.1
2022-10-06T18:59:24.780Z,1003.1
2022-10-06T19:04:43.810Z,1003.2
2022-10-06T19:10:03.545Z,1003.2
2022-10-06T19:16:37.756Z,1003.2
2022-10-06T19:20:41.413Z,1003.2
2022-10-06T19:26:00.309Z,1003.1
2022-10-06T19:31:19.978Z,1003.2
2022-10-06T19:37:54.106Z,1003.1
2022-10-06T19:41:58.602Z,1003.2
2022-10-06T19:47:17.807Z,1003.2
2022-10-06T19:53:13.312Z,1003.2
2022-10-06T19:58:32.028Z,1003.2
2022-10-06T20:03:51.887Z,1003.2
2022-10-06T20:10:26.023Z,1003.3
2022-10-06T20:14:30.481Z,1003.2
2022-10-06T20:19:52.894Z,1003.3
2022-10-06T20:25:09.255Z,1003.3
2022-10-06T20:30:27.965Z,1003.2
2022-10-06T20:37:02.129Z,1003.3
2022-10-06T20:41:07.764Z,1003.3
2022-10-06T20:46:37.266Z,1003.4
2022-10-06T20:55:00.291Z,1003.2
2022-10-06T21:07:45.068Z,1003.2
2022-10-06T21:13:04.391Z,1003.2
2022-10-06T21:21:37.442Z,1003.1
2022-10-06T21:25:52.827Z,1003.1
2022-10-06T21:29:01.190Z,1003.2
2022-10-06T21:34:20.423Z,1003.2
2022-10-06T21:39:39.365Z,1003.1
2022-10-06T21:46:38.011Z,1003.1
2022-10-06T21:50:19.234Z,1003
2022-10-06T21:55:38.246Z,1003
2022-10-06T22:00:58.269Z,1003
2022-10-06T22:09:30.906Z,1003
2022-10-06T22:13:46.348Z,1003
2022-10-06T22:16:54.527Z,1002.9
2022-10-06T22:23:28.704Z,1002.9
2022-10-06T22:32:54.057Z,1002.8
2022-10-06T22:41:27.131Z,1002.7
2022-10-06T22:45:42.553Z,1002.7
2022-10-06T22:54:09.462Z,1002.5
2022-10-06T22:59:28.564Z,1002.4
2022-10-06T23:04:48.235Z,1002.3
2022-10-06T23:10:07.794Z,1002.3
2022-10-06T23:15:26.738Z,1002.2
2022-10-06T23:20:46.496Z,1002.2
2022-10-06T23:26:05.047Z,1002.1
2022-10-06T23:31:25.439Z,1002.1
2022-10-06T23:36:44.642Z,1002.1
2022-10-06T23:42:03.593Z,1002.1
2022-10-06T23:47:22.921Z,1002
2022-10-06T23:52:42.082Z,1002.1
2022-10-06T23:58:00.955Z,1002.1
